createdAt,value
2018-06-01T00:01:26.524Z,52.00
2018-06-01T00:03:54.844Z,52.97
2018-06-01T00:06:23.179Z,54.07
2018-06-01T00:08:51.499Z,52.53
2018-06-01T00:11:19.819Z,54.20
2018-06-01T00:13:48.125Z,56.73
2018-06-01T00:16:16.459Z,56.53
2018-06-01T00:18:44.793Z,55.17
2018-06-01T00:21:13.145Z,53.97
2018-06-01T00:23:41.486Z,54.40
2018-06-01T00:26:09.819Z,53.43
2018-06-01T00:28:38.923Z,53.23
2018-06-01T00:31:08.030Z,52.80
2018-06-01T00:33:36.339Z,55.40
2018-06-01T00:36:04.683Z,58.43
2018-06-01T00:38:33.786Z,60.13
2018-06-01T00:41:02.101Z,58.37
2018-06-01T00:43:30.598Z,58.80
2018-06-01T00:45:59.710Z,58.60
2018-06-01T00:48:28.044Z,58.40
2018-06-01T00:50:56.384Z,58.00
2018-06-01T00:53:24.720Z,57.13
2018-06-01T00:55:53.067Z,56.83
2018-06-01T00:58:21.394Z,55.40
2018-06-01T01:00:49.708Z,56.40
2018-06-01T01:03:18.022Z,51.47
2018-06-01T01:05:46.360Z,51.27
2018-06-01T01:08:14.661Z,49.93
2018-06-01T01:10:43.021Z,53.20
2018-06-01T01:13:12.119Z,51.23
2018-06-01T01:15:40.438Z,51.40
2018-06-01T01:18:08.771Z,53.57
2018-06-01T01:20:37.081Z,54.33
2018-06-01T01:23:05.436Z,55.83
2018-06-01T01:25:33.758Z,55.40
2018-06-01T01:28:02.089Z,55.43
2018-06-01T01:30:30.411Z,54.00
2018-06-01T01:32:58.726Z,55.97
2018-06-01T01:35:27.063Z,57.83
2018-06-01T01:37:55.384Z,60.10
2018-06-01T01:40:24.513Z,66.43
2018-06-01T01:42:52.825Z,67.63
2018-06-01T01:45:21.157Z,67.57
2018-06-01T01:47:49.491Z,72.03
2018-06-01T01:50:17.830Z,79.60
2018-06-01T01:52:46.956Z,83.03
2018-06-01T01:55:15.278Z,85.30
2018-06-01T01:57:43.609Z,88.30
2018-06-01T02:00:11.922Z,90.77
2018-06-01T02:02:40.289Z,93.70
2018-06-01T02:05:08.670Z,95.40
2018-06-01T02:07:36.994Z,99.20
2018-06-01T02:10:05.337Z,105.63
2018-06-01T02:12:33.678Z,104.30
2018-06-01T02:15:02.028Z,104.13
2018-06-01T02:17:30.405Z,111.87
2018-06-01T02:19:58.742Z,115.77
2018-06-01T02:22:27.070Z,112.83
2018-06-01T02:24:55.401Z,118.03
2018-06-01T02:27:24.534Z,126.07
2018-06-01T02:29:52.894Z,137.13
2018-06-01T02:32:21.226Z,133.60
2018-06-01T02:34:49.550Z,134.43
2018-06-01T02:37:18.664Z,126.07
2018-06-01T02:39:46.999Z,133.00
2018-06-01T02:42:15.389Z,139.37
2018-06-01T02:44:43.713Z,157.93
2018-06-01T02:47:12.093Z,148.57
2018-06-01T02:49:40.468Z,137.63
2018-06-01T02:52:09.608Z,128.90
2018-06-01T02:54:37.992Z,121.93
2018-06-01T02:57:06.438Z,120.87
2018-06-01T02:59:34.756Z,117.13
2018-06-01T03:02:03.082Z,117.57
2018-06-01T03:04:31.417Z,135.93
2018-06-01T03:07:11.677Z,115.87
2018-06-01T03:09:39.993Z,118.73
2018-06-01T03:12:07.981Z,121.43
2018-06-01T03:14:36.337Z,122.57
2018-06-01T03:17:04.334Z,120.70
2018-06-01T03:19:32.673Z,123.60
2018-06-01T03:22:01.024Z,115.97
2018-06-01T03:24:30.119Z,115.27
2018-06-01T03:26:58.439Z,120.17
2018-06-01T03:29:26.800Z,128.40
2018-06-01T03:31:55.132Z,131.37
2018-06-01T03:34:23.479Z,123.77
2018-06-01T03:36:51.808Z,124.03
2018-06-01T03:39:20.172Z,125.80
2018-06-01T03:41:48.511Z,121.33
2018-06-01T03:44:16.840Z,121.03
2018-06-01T03:46:48.224Z,118.77
2018-06-01T03:49:16.546Z,108.43
2018-06-01T03:51:44.910Z,118.33
2018-06-01T03:54:13.237Z,118.97
2018-06-01T03:56:41.575Z,117.83
2018-06-01T03:59:09.934Z,114.40
2018-06-01T04:01:38.273Z,110.40
2018-06-01T04:04:06.609Z,107.63
2018-06-01T04:06:34.951Z,103.87
2018-06-01T04:09:02.851Z,107.20
2018-06-01T04:11:31.185Z,108.10
2018-06-01T04:13:59.523Z,104.77
2018-06-01T04:16:28.640Z,106.90
2018-06-01T04:18:56.976Z,102.90
2018-06-01T04:21:25.331Z,105.10
2018-06-01T04:23:53.658Z,103.70
2018-06-01T04:26:22.179Z,105.17
2018-06-01T04:28:50.548Z,99.60
2018-06-01T04:31:19.665Z,94.43
2018-06-01T04:33:47.995Z,91.23
2018-06-01T04:36:16.313Z,93.60
2018-06-01T04:38:44.643Z,94.33
2018-06-01T04:41:13.753Z,95.60
2018-06-01T04:43:42.066Z,90.07
2018-06-01T04:46:11.216Z,92.70
2018-06-01T04:48:39.552Z,89.03
2018-06-01T04:51:07.863Z,89.27
2018-06-01T04:53:36.196Z,85.87
2018-06-01T04:56:04.514Z,86.43
2018-06-01T04:58:33.801Z,85.60
2018-06-01T05:01:02.136Z,83.73
2018-06-01T05:03:30.454Z,81.13
2018-06-01T05:05:58.786Z,82.87
2018-06-01T05:08:27.119Z,88.80
2018-06-01T05:10:55.435Z,89.80
2018-06-01T05:13:23.791Z,88.40
2018-06-01T05:15:52.288Z,82.90
2018-06-01T05:18:20.601Z,82.13
2018-06-01T05:20:49.108Z,80.03
2018-06-01T05:23:17.431Z,86.47
2018-06-01T05:25:45.778Z,81.30
2018-06-01T05:28:14.114Z,85.17
2018-06-01T05:30:43.214Z,80.97
2018-06-01T05:33:11.697Z,79.00
2018-06-01T05:35:40.015Z,83.30
2018-06-01T05:38:08.104Z,80.03
2018-06-01T05:40:36.433Z,82.63
2018-06-01T05:43:05.506Z,82.97
2018-06-01T05:45:33.851Z,78.87
2018-06-01T05:48:02.732Z,77.18
2018-06-01T05:50:31.655Z,79.35
2018-06-01T05:53:00.529Z,78.90
2018-06-01T05:55:29.429Z,79.40
2018-06-01T05:57:58.286Z,76.28
2018-06-01T06:00:27.188Z,79.25
2018-06-01T06:02:56.080Z,74.93
2018-06-01T06:05:24.995Z,73.07
2018-06-01T06:07:53.872Z,68.72
2018-06-01T06:10:22.188Z,66.57
2018-06-01T06:12:50.499Z,59.27
2018-06-01T06:15:19.385Z,58.67
2018-06-01T06:17:49.941Z,56.72
2018-06-01T06:20:19.092Z,54.65
2018-06-01T06:22:48.059Z,50.47
2018-06-01T06:25:16.951Z,52.62
2018-06-01T06:27:45.831Z,50.88
2018-06-01T06:30:14.766Z,53.13
2018-06-01T06:32:43.645Z,47.08
2018-06-01T06:35:12.518Z,47.08
2018-06-01T06:37:41.426Z,42.47
2018-06-01T06:40:10.319Z,40.78
2018-06-01T06:42:39.291Z,42.25
2018-06-01T06:45:08.296Z,41.58
2018-06-01T06:47:37.631Z,40.30
2018-06-01T06:50:05.982Z,40.33
2018-06-01T06:52:34.871Z,39.95
2018-06-01T06:55:03.760Z,40.42
2018-06-01T06:57:32.656Z,40.50
2018-06-01T07:00:02.328Z,40.22
2018-06-01T07:02:31.222Z,38.42
2018-06-01T07:05:00.101Z,37.85
2018-06-01T07:07:28.983Z,36.70
2018-06-01T07:09:57.859Z,35.33
2018-06-01T07:12:26.747Z,36.13
2018-06-01T07:14:55.615Z,35.55
2018-06-01T07:17:23.938Z,30.25
2018-06-01T07:19:52.812Z,27.73
2018-06-01T07:22:21.766Z,27.80
2018-06-01T07:24:50.801Z,28.55
2018-06-01T07:27:19.710Z,29.30
2018-06-01T07:29:48.632Z,27.35
2018-06-01T07:32:17.511Z,25.35
2018-06-01T07:34:46.387Z,23.85
2018-06-01T07:37:15.258Z,24.60
2018-06-01T07:39:44.137Z,23.30
2018-06-01T07:42:13.799Z,23.17
2018-06-01T07:44:42.714Z,23.48
2018-06-01T07:47:11.596Z,23.50
2018-06-01T07:49:40.495Z,21.08
2018-06-01T07:52:09.425Z,21.85
2018-06-01T07:54:38.370Z,21.67
2018-06-01T07:57:07.426Z,21.87
2018-06-01T07:59:36.297Z,22.70
2018-06-01T08:02:05.211Z,22.13
2018-06-01T08:04:34.103Z,20.62
2018-06-01T08:07:02.989Z,21.20
2018-06-01T08:09:31.929Z,21.33
2018-06-01T08:12:00.831Z,21.85
2018-06-01T08:14:30.519Z,22.58
2018-06-01T08:16:59.406Z,22.00
2018-06-01T08:19:28.358Z,23.08
2018-06-01T08:21:57.358Z,23.80
2018-06-01T08:24:25.696Z,25.00
2018-06-01T08:26:54.612Z,25.33
2018-06-01T08:29:23.670Z,24.05
2018-06-01T08:31:52.575Z,23.92
2018-06-01T08:34:21.466Z,25.48
2018-06-01T08:36:50.349Z,23.52
2018-06-01T08:39:24.643Z,25.83
2018-06-01T08:41:53.701Z,26.55
2018-06-01T08:44:22.605Z,25.85
2018-06-01T08:46:51.481Z,25.98
2018-06-01T08:49:20.558Z,25.08
2018-06-01T08:51:49.429Z,26.92
2018-06-01T08:54:18.325Z,27.50
2018-06-01T08:56:47.218Z,26.20
2018-06-01T08:59:16.158Z,26.45
2018-06-01T09:01:45.164Z,26.00
2018-06-01T09:04:14.040Z,25.67
2018-06-01T09:06:42.923Z,26.05
2018-06-01T09:09:11.803Z,25.33
2018-06-01T09:14:04.230Z,24.83
2018-06-01T09:16:33.897Z,25.98
2018-06-01T09:19:03.536Z,25.77
2018-06-01T09:21:32.414Z,27.27
2018-06-01T09:24:01.295Z,26.02
2018-06-01T09:26:30.169Z,26.80
2018-06-01T09:28:59.075Z,27.33
2018-06-01T09:31:27.959Z,26.52
2018-06-01T09:33:56.832Z,23.75
2018-06-01T09:36:25.845Z,22.30
2018-06-01T09:38:54.731Z,23.23
2018-06-01T09:41:23.677Z,22.85
2018-06-01T09:43:52.566Z,26.23
2018-06-01T09:46:21.471Z,26.10
2018-06-01T09:48:50.350Z,23.90
2018-06-01T09:51:18.691Z,23.70
2018-06-01T09:53:47.593Z,25.27
2018-06-01T09:56:16.455Z,25.85
2018-06-01T09:58:46.106Z,26.33
2018-06-01T10:01:14.758Z,29.12
2018-06-01T10:03:43.673Z,30.45
2018-06-01T10:06:12.577Z,31.62
2018-06-01T10:08:41.123Z,31.62
2018-06-01T10:11:10.010Z,31.50
2018-06-01T10:13:38.893Z,29.73
2018-06-01T10:16:07.793Z,29.55
2018-06-01T10:18:36.432Z,30.10
2018-06-01T10:21:06.079Z,27.58
2018-06-01T10:23:34.974Z,28.23
2018-06-01T10:26:03.858Z,28.17
2018-06-01T10:28:32.764Z,28.23
2018-06-01T10:31:01.632Z,26.40
2018-06-01T10:33:30.554Z,26.75
2018-06-01T10:35:59.419Z,25.52
2018-06-01T10:38:28.312Z,26.45
2018-06-01T10:40:57.227Z,23.48
2018-06-01T10:43:27.055Z,23.17
2018-06-01T10:45:55.929Z,22.48
2018-06-01T10:48:24.813Z,23.77
2018-06-01T10:50:53.701Z,21.60
2018-06-01T10:53:22.598Z,20.58
2018-06-01T10:55:51.489Z,19.50
2018-06-01T10:58:20.390Z,19.00
2018-06-01T11:00:49.269Z,20.67
2018-06-01T11:03:18.877Z,19.70
2018-06-01T11:05:47.749Z,18.90
2018-06-01T11:08:16.637Z,18.17
2018-06-01T11:10:45.519Z,18.37
2018-06-01T11:13:14.413Z,17.35
2018-06-01T11:15:43.323Z,16.12
2018-06-01T11:18:13.003Z,14.73
2018-06-01T11:20:41.872Z,16.67
2018-06-01T11:23:11.524Z,17.00
2018-06-01T11:25:40.425Z,17.65
2018-06-01T11:28:09.306Z,18.02
2018-06-01T11:30:38.241Z,18.70
2018-06-01T11:33:07.126Z,17.65
2018-06-01T11:35:36.035Z,18.20
2018-06-01T11:38:05.105Z,18.33
2018-06-01T11:40:33.995Z,18.48
2018-06-01T11:43:02.906Z,19.85
2018-06-01T11:45:31.799Z,18.73
2018-06-01T11:48:00.721Z,18.77
2018-06-01T11:50:29.632Z,19.37
2018-06-01T11:52:58.518Z,19.40
2018-06-01T11:55:28.049Z,19.48
2018-06-01T11:57:56.984Z,17.12
2018-06-01T12:00:25.876Z,15.93
2018-06-01T12:02:54.788Z,16.95
2018-06-01T12:05:23.725Z,14.05
2018-06-01T12:07:52.609Z,14.07
2018-06-01T12:10:21.487Z,13.43
2018-06-01T12:12:50.377Z,14.50
2018-06-01T12:15:19.266Z,14.50
2018-06-01T12:17:48.216Z,14.68
2018-06-01T12:20:17.284Z,14.77
2018-06-01T12:22:46.209Z,14.60
2018-06-01T12:25:15.103Z,15.60
2018-06-01T12:27:44.009Z,16.40
2018-06-01T12:30:12.927Z,17.33
2018-06-01T12:32:41.866Z,17.05
2018-06-01T12:35:10.756Z,17.48
2018-06-01T12:37:39.656Z,17.02
2018-06-01T12:40:08.528Z,17.52
2018-06-01T12:42:37.439Z,18.62
2018-06-01T12:45:06.346Z,18.45
2018-06-01T12:47:35.228Z,19.20
2018-06-01T12:50:04.881Z,18.98
2018-06-01T12:52:33.803Z,19.12
2018-06-01T12:55:02.695Z,22.37
2018-06-01T12:57:31.605Z,18.73
2018-06-01T13:00:00.501Z,18.62
2018-06-01T13:02:28.815Z,20.60
2018-06-01T13:04:57.706Z,21.87
2018-06-01T13:07:26.591Z,20.20
2018-06-01T13:09:55.493Z,17.20
2018-06-01T13:12:24.415Z,19.35
2018-06-01T13:14:53.321Z,18.73
2018-06-01T13:17:21.904Z,19.90
2018-06-01T13:19:50.796Z,18.45
2018-06-01T13:22:19.683Z,17.50
2018-06-01T13:24:48.606Z,17.52
2018-06-01T13:27:17.505Z,16.90
2018-06-01T13:29:46.409Z,16.90
2018-06-01T13:32:15.483Z,15.20
2018-06-01T13:34:44.390Z,15.43
2018-06-01T13:37:13.272Z,14.82
2018-06-01T13:39:42.160Z,14.00
2018-06-01T13:42:11.067Z,15.35
2018-06-01T13:44:39.970Z,14.77
2018-06-01T13:47:08.909Z,15.75
2018-06-01T13:49:37.818Z,16.62
2018-06-01T13:52:06.888Z,17.10
2018-06-01T13:54:35.796Z,14.70
2018-06-01T13:57:04.127Z,17.08
2018-06-01T13:59:33.037Z,16.98
2018-06-01T14:02:01.939Z,16.95
2018-06-01T14:04:30.873Z,17.30
2018-06-01T14:06:59.952Z,14.57
2018-06-01T14:09:28.871Z,13.95
2018-06-01T14:11:57.920Z,13.60
2018-06-01T14:14:26.833Z,12.48
2018-06-01T14:16:55.713Z,12.65
2018-06-01T14:19:24.596Z,12.88
2018-06-01T14:21:53.492Z,14.73
2018-06-01T14:24:22.438Z,15.27
2018-06-01T14:26:51.347Z,17.95
2018-06-01T14:29:19.676Z,18.55
2018-06-01T14:31:48.021Z,20.77
2018-06-01T14:34:16.338Z,18.20
2018-06-01T14:36:44.671Z,16.80
2018-06-01T14:39:13.011Z,18.73
2018-06-01T14:41:41.321Z,18.90
2018-06-01T14:44:09.674Z,18.80
2018-06-01T14:46:37.999Z,18.97
2018-06-01T14:49:06.341Z,17.43
2018-06-01T14:51:34.671Z,18.93
2018-06-01T14:54:03.005Z,20.13
2018-06-01T14:56:31.349Z,18.90
2018-06-01T14:58:59.672Z,18.63
2018-06-01T15:01:27.983Z,20.50
2018-06-01T15:03:56.323Z,20.90
2018-06-01T15:06:24.629Z,21.63
2018-06-01T15:08:52.945Z,21.50
2018-06-01T15:11:21.276Z,21.40
2018-06-01T15:13:49.615Z,23.93
2018-06-01T15:16:18.167Z,24.00
2018-06-01T15:18:46.168Z,25.17
2018-06-01T15:21:14.502Z,27.33
2018-06-01T15:23:42.819Z,25.10
2018-06-01T15:26:11.898Z,21.30
2018-06-01T15:28:40.386Z,21.53
2018-06-01T15:31:08.792Z,20.70
2018-06-01T15:33:37.913Z,20.50
2018-06-01T15:36:06.232Z,20.17
2018-06-01T15:38:34.549Z,22.17
2018-06-01T15:41:02.964Z,20.40
2018-06-01T15:43:31.410Z,18.83
2018-06-01T15:45:59.748Z,17.97
2018-06-01T15:48:28.070Z,17.97
2018-06-01T15:50:56.400Z,18.50
2018-06-01T15:53:24.710Z,19.37
2018-06-01T15:55:53.036Z,21.47
2018-06-01T15:58:21.374Z,20.57
2018-06-01T16:00:49.702Z,23.83
2018-06-01T16:03:18.106Z,21.57
2018-06-01T16:05:46.502Z,23.80
2018-06-01T16:08:14.869Z,25.23
2018-06-01T16:10:43.362Z,26.27
2018-06-01T16:13:11.708Z,26.93
2018-06-01T16:15:40.079Z,24.10
2018-06-01T16:18:08.623Z,21.73
2018-06-01T16:20:37.119Z,19.33
2018-06-01T16:23:04.891Z,19.50
2018-06-01T16:25:33.200Z,20.27
2018-06-01T16:28:01.522Z,20.20
2018-06-01T16:30:29.875Z,19.40
2018-06-01T16:32:58.176Z,19.80
2018-06-01T16:35:33.417Z,21.83
2018-06-01T16:38:02.548Z,23.40
2018-06-01T16:40:30.558Z,24.70
2018-06-01T16:42:59.690Z,25.93
2018-06-01T16:45:28.009Z,22.70
2018-06-01T16:47:56.345Z,22.60
2018-06-01T16:50:25.458Z,21.70
2018-06-01T16:52:53.771Z,21.70
2018-06-01T16:55:22.068Z,21.33
2018-06-01T17:00:25.315Z,26.57
2018-06-01T17:02:53.668Z,30.80
2018-06-01T17:05:22.010Z,29.03
2018-06-01T17:07:50.335Z,23.37
2018-06-01T17:10:18.667Z,24.27
2018-06-01T17:12:46.991Z,22.83
2018-06-01T17:15:15.301Z,22.53
2018-06-01T17:17:43.625Z,16.67
2018-06-01T17:20:11.948Z,20.57
2018-06-01T17:22:41.108Z,20.00
2018-06-01T17:25:09.588Z,19.83
2018-06-01T17:27:37.913Z,20.13
2018-06-01T17:30:06.255Z,21.87
2018-06-01T17:32:34.570Z,21.40
2018-06-01T17:35:02.910Z,19.40
2018-06-01T17:37:31.226Z,21.73
2018-06-01T17:39:59.554Z,22.37
2018-06-01T17:42:27.876Z,19.10
2018-06-01T17:44:56.183Z,18.50
2018-06-01T17:47:24.545Z,17.97
2018-06-01T17:49:52.864Z,16.90
2018-06-01T17:52:21.185Z,16.53
2018-06-01T17:54:49.499Z,16.97
2018-06-01T17:57:17.792Z,16.17
2018-06-01T17:59:46.110Z,15.63
2018-06-01T18:02:14.443Z,17.17
2018-06-01T18:04:42.777Z,18.03
2018-06-01T18:07:11.106Z,15.90
2018-06-01T18:09:39.428Z,15.60
2018-06-01T18:12:07.740Z,16.70
2018-06-01T18:14:36.061Z,16.00
2018-06-01T18:17:04.387Z,17.97
2018-06-01T18:19:32.706Z,16.47
2018-06-01T18:22:01.056Z,16.57
2018-06-01T18:24:29.387Z,16.60
2018-06-01T18:26:57.687Z,18.03
2018-06-01T18:29:26.007Z,17.67
2018-06-01T18:31:55.094Z,16.37
2018-06-01T18:34:23.402Z,15.07
2018-06-01T18:36:51.746Z,14.87
2018-06-01T18:39:20.073Z,15.37
2018-06-01T18:41:48.375Z,15.27
2018-06-01T18:44:16.699Z,15.70
2018-06-01T18:46:45.016Z,17.60
2018-06-01T18:49:13.355Z,18.80
2018-06-01T18:51:41.659Z,18.53
2018-06-01T18:54:10.746Z,18.97
2018-06-01T18:56:39.087Z,18.47
2018-06-01T18:59:07.416Z,19.23
2018-06-01T19:01:35.722Z,19.40
2018-06-01T19:04:03.805Z,17.63
2018-06-01T19:06:32.137Z,19.27
2018-06-01T19:09:00.445Z,18.13
2018-06-01T19:11:37.785Z,19.83
2018-06-01T19:14:06.099Z,21.40
2018-06-01T19:16:37.773Z,18.77
2018-06-01T19:19:06.860Z,18.07
2018-06-01T19:21:35.169Z,17.53
2018-06-01T19:24:03.529Z,15.60
2018-06-01T19:26:32.621Z,18.10
2018-06-01T19:29:00.979Z,17.20
2018-06-01T19:31:32.677Z,18.40
2018-06-01T19:34:01.755Z,18.13
2018-06-01T19:36:31.627Z,17.80
2018-06-01T19:38:59.950Z,18.33
2018-06-01T19:41:28.280Z,20.40
2018-06-01T19:43:56.619Z,21.13
2018-06-01T19:46:24.979Z,22.70
2018-06-01T19:48:53.464Z,23.17
2018-06-01T19:51:21.798Z,23.33
2018-06-01T19:53:50.127Z,25.57
2018-06-01T19:56:18.482Z,27.33
2018-06-01T19:58:46.803Z,25.87
2018-06-01T20:01:15.161Z,25.83
2018-06-01T20:03:43.588Z,25.23
2018-06-01T20:06:11.926Z,23.00
2018-06-01T20:08:40.234Z,23.07
2018-06-01T20:11:08.549Z,23.00
2018-06-01T20:13:36.881Z,22.40
2018-06-01T20:16:04.660Z,21.83
2018-06-01T20:18:33.004Z,21.83
2018-06-01T20:21:01.336Z,21.27
2018-06-01T20:23:29.669Z,23.03
2018-06-01T20:25:58.000Z,23.47
2018-06-01T20:28:26.322Z,22.30
2018-06-01T20:30:54.654Z,23.20
2018-06-01T20:33:22.984Z,18.97
2018-06-01T20:35:51.296Z,21.67
2018-06-01T20:38:19.628Z,21.73
2018-06-01T20:40:47.941Z,23.70
2018-06-01T20:43:17.039Z,22.33
2018-06-01T20:45:45.376Z,23.20
2018-06-01T20:48:13.685Z,23.50
2018-06-01T20:50:42.211Z,25.10
2018-06-01T20:53:10.513Z,26.77
2018-06-01T20:55:38.854Z,27.13
2018-06-01T20:58:07.919Z,26.60
2018-06-01T21:00:36.239Z,27.07
2018-06-01T21:03:04.545Z,28.43
2018-06-01T21:05:32.854Z,27.87
2018-06-01T21:08:01.187Z,28.07
2018-06-01T21:10:29.516Z,28.70
2018-06-01T21:13:00.993Z,28.50
2018-06-01T21:15:29.288Z,27.67
2018-06-01T21:17:58.400Z,27.97
2018-06-01T21:20:26.709Z,26.10
2018-06-01T21:23:06.788Z,28.33
2018-06-01T21:25:35.097Z,27.57
2018-06-01T21:28:04.215Z,27.70
2018-06-01T21:30:33.292Z,26.60
2018-06-01T21:33:01.633Z,27.47
2018-06-01T21:35:29.973Z,29.53
2018-06-01T21:38:02.089Z,30.37
2018-06-01T21:40:30.384Z,30.57
2018-06-01T21:42:58.749Z,33.73
2018-06-01T21:45:27.055Z,33.27
2018-06-01T21:47:55.400Z,34.67
2018-06-01T21:50:23.792Z,37.10
2018-06-01T21:52:52.169Z,37.20
2018-06-01T21:55:20.471Z,37.33
2018-06-01T21:57:48.778Z,39.23
2018-06-01T22:00:17.119Z,38.47
2018-06-01T22:02:45.442Z,39.77
2018-06-01T22:05:13.764Z,39.57
2018-06-01T22:07:42.089Z,35.97
2018-06-01T22:10:11.205Z,36.87
2018-06-01T22:12:39.516Z,37.03
2018-06-01T22:15:07.850Z,35.70
2018-06-01T22:17:36.172Z,40.00
2018-06-01T22:20:04.141Z,37.90
2018-06-01T22:22:32.459Z,40.40
2018-06-01T22:25:00.760Z,39.93
2018-06-01T22:27:29.084Z,39.07
2018-06-01T22:29:57.371Z,42.50
2018-06-01T22:32:26.458Z,40.80
2018-06-01T22:34:54.765Z,40.83
2018-06-01T22:37:23.085Z,47.83
2018-06-01T22:39:51.405Z,45.60
2018-06-01T22:42:19.747Z,46.20
2018-06-01T22:44:48.234Z,45.50
2018-06-01T22:47:16.573Z,45.27
2018-06-01T22:49:45.644Z,42.53
2018-06-01T22:52:13.838Z,50.00
2018-06-01T22:54:42.181Z,43.77
2018-06-01T22:57:10.516Z,47.53
2018-06-01T22:59:38.826Z,44.73
2018-06-01T23:02:07.139Z,44.40
2018-06-01T23:04:35.534Z,47.30
2018-06-01T23:07:03.601Z,47.17
2018-06-01T23:09:31.928Z,45.17
2018-06-01T23:12:00.231Z,46.50
2018-06-01T23:14:28.605Z,43.70
2018-06-01T23:16:57.107Z,45.20
2018-06-01T23:19:25.460Z,47.13
2018-06-01T23:21:53.955Z,44.77
2018-06-01T23:24:22.271Z,45.27
2018-06-01T23:26:50.583Z,54.87
2018-06-01T23:29:18.944Z,49.80
2018-06-01T23:31:47.252Z,46.37
2018-06-01T23:34:15.576Z,51.50
2018-06-01T23:36:43.904Z,47.73
2018-06-01T23:39:12.245Z,46.90
2018-06-01T23:41:40.544Z,40.30
2018-06-01T23:44:08.859Z,37.07
2018-06-01T23:46:37.179Z,38.23
2018-06-01T23:49:04.954Z,39.37
2018-06-01T23:51:33.260Z,38.90
2018-06-01T23:54:01.554Z,39.60
2018-06-01T23:56:29.872Z,39.47
2018-06-01T23:58:58.191Z,40.50
